Time;durP1;ratioP1;P1;durP2;ratioP2;P2;SDS_P1;SDS_P2;PMS_P1;PMS_P2;Temp;Humidity;BMP_temperature;BMP_pressure;BME280_temperature;BME280_humidity;BME280_pressure;Samples;Min_cycle;Max_cycle;Signal;HPM_P1;HPM_P2
2021/08/21 00:00:36;;;;;;;20.70;12.13;;;;;;;12.93;100.00;101154.41;5054767;28;20180;-68
2021/08/21 00:03:02;;;;;;;23.40;11.07;;;;;;;12.86;100.00;101151.22;5054696;28;20175;-67
2021/08/21 00:05:27;;;;;;;15.57;12.03;;;;;;;12.78;100.00;101154.34;5053141;28;20194;-66
2021/08/21 00:07:53;;;;;;;27.23;11.97;;;;;;;12.83;100.00;101160.28;5053225;28;20239;-67
2021/08/21 00:10:19;;;;;;;18.10;12.00;;;;;;;12.84;100.00;101158.47;5054380;28;20179;-67
2021/08/21 00:12:44;;;;;;;19.87;13.90;;;;;;;12.88;100.00;101160.03;5053515;28;20237;-67
2021/08/21 00:15:12;;;;;;;24.27;15.80;;;;;;;12.91;100.00;101165.19;5053880;28;20179;-67
2021/08/21 00:17:39;;;;;;;19.30;14.17;;;;;;;12.87;100.00;101162.78;5053336;28;20257;-67
2021/08/21 00:20:05;;;;;;;18.10;14.50;;;;;;;12.87;100.00;101163.66;5054683;28;20178;-68
2021/08/21 00:22:31;;;;;;;15.23;11.70;;;;;;;12.89;100.00;101163.56;5054480;28;20206;-68
2021/08/21 00:24:56;;;;;;;13.23;10.67;;;;;;;12.91;100.00;101167.88;5053223;28;20666;-68
2021/08/21 00:27:23;;;;;;;13.80;11.13;;;;;;;12.92;100.00;101171.44;5053957;28;20222;-68
2021/08/21 00:29:48;;;;;;;15.87;12.57;;;;;;;12.89;100.00;101172.47;5054385;28;20194;-68
2021/08/21 00:32:14;;;;;;;17.60;11.40;;;;;;;12.94;100.00;101166.84;5053280;28;20172;-68
2021/08/21 00:34:39;;;;;;;29.50;11.63;;;;;;;13.01;100.00;101176.28;5053048;28;20186;-68
2021/08/21 00:37:04;;;;;;;12.93;11.43;;;;;;;12.93;100.00;101170.47;5054063;28;20168;-68
2021/08/21 00:39:29;;;;;;;27.87;11.70;;;;;;;12.99;100.00;101170.97;5054762;28;20184;-67
2021/08/21 00:41:55;;;;;;;17.90;11.83;;;;;;;12.93;100.00;101174.00;5054314;28;20180;-68
2021/08/21 00:44:20;;;;;;;18.90;13.03;;;;;;;12.89;100.00;101176.97;5054147;28;20694;-68
2021/08/21 00:47:00;;;;;;;52.27;11.93;;;;;;;12.84;100.00;101175.41;5053706;28;20200;-68
2021/08/21 00:49:26;;;;;;;16.80;11.93;;;;;;;12.84;100.00;101167.38;5053503;28;20166;-68
2021/08/21 00:51:51;;;;;;;18.97;12.17;;;;;;;12.84;100.00;101159.34;5052468;28;20171;-67
2021/08/21 00:54:17;;;;;;;28.13;10.93;;;;;;;12.85;100.00;101168.25;5053535;28;20636;-68
2021/08/21 00:56:42;;;;;;;69.47;11.33;;;;;;;12.78;100.00;101170.41;5053890;28;20624;-68
2021/08/21 00:59:08;;;;;;;16.57;10.83;;;;;;;12.80;100.00;101170.31;5053770;28;20191;-68
2021/08/21 01:01:33;;;;;;;12.03;9.30;;;;;;;12.77;100.00;101165.13;5053669;28;20167;-68
2021/08/21 01:03:59;;;;;;;10.77;9.60;;;;;;;12.71;100.00;101163.69;5053383;28;20186;-69
2021/08/21 01:06:24;;;;;;;13.97;9.83;;;;;;;12.74;100.00;101163.50;5053420;28;20195;-68
2021/08/21 01:08:50;;;;;;;23.77;9.53;;;;;;;12.65;100.00;101168.53;5053143;28;20214;-68
2021/08/21 01:11:15;;;;;;;11.50;9.43;;;;;;;12.67;100.00;101174.66;5053354;28;20543;-68
2021/08/21 01:13:40;;;;;;;11.00;9.03;;;;;;;12.67;100.00;101174.66;5053650;28;20178;-68
2021/08/21 01:16:05;;;;;;;12.13;9.77;;;;;;;12.62;100.00;101169.53;5052282;28;20172;-68
2021/08/21 01:18:31;;;;;;;52.93;9.87;;;;;;;12.58;100.00;101162.63;5053408;28;20206;-68
2021/08/21 01:20:56;;;;;;;15.80;12.27;;;;;;;12.54;100.00;101174.44;5051907;28;20258;-68
2021/08/21 01:23:22;;;;;;;18.40;10.07;;;;;;;12.58;100.00;101176.00;5051967;28;20186;-68
2021/08/21 01:25:47;;;;;;;22.73;11.17;;;;;;;12.61;100.00;101178.50;5052147;28;20651;-68
2021/08/21 01:28:12;;;;;;;37.03;11.03;;;;;;;12.56;100.00;101177.03;5053425;28;20202;-67
2021/08/21 01:30:38;;;;;;;24.67;9.03;;;;;;;12.53;100.00;101175.41;5053227;28;20179;-67
2021/08/21 01:33:03;;;;;;;32.87;10.30;;;;;;;12.45;100.00;101177.66;5052019;28;20175;-68
2021/08/21 01:35:28;;;;;;;13.17;10.90;;;;;;;12.42;100.00;101184.03;5053299;28;20179;-67
2021/08/21 01:37:54;;;;;;;11.97;9.33;;;;;;;12.40;100.00;101179.72;5052903;28;20223;-67
2021/08/21 01:40:19;;;;;;;12.03;10.67;;;;;;;12.35;100.00;101179.09;5053346;28;20172;-67
2021/08/21 01:42:44;;;;;;;60.57;12.73;;;;;;;12.28;100.00;101185.75;5053283;28;20176;-67
2021/08/21 01:45:13;;;;;;;14.60;10.37;;;;;;;12.24;100.00;101178.81;5052961;28;20678;-67
2021/08/21 01:47:40;;;;;;;11.20;8.83;;;;;;;12.16;100.00;101180.09;5053099;28;20207;-68
2021/08/21 01:50:10;;;;;;;12.50;10.70;;;;;;;12.12;100.00;101188.38;5051529;28;20186;-67
2021/08/21 01:52:36;;;;;;;14.53;11.77;;;;;;;12.08;100.00;101178.78;5052759;28;20655;-67
2021/08/21 01:55:01;;;;;;;16.53;9.13;;;;;;;11.96;100.00;101174.97;5053173;28;20195;-67
2021/08/21 01:57:26;;;;;;;11.97;9.07;;;;;;;11.93;100.00;101180.47;5052915;28;20191;-67
2021/08/21 01:59:52;;;;;;;11.63;9.17;;;;;;;11.87;100.00;101178.97;5053268;28;20186;-68
2021/08/21 02:02:20;;;;;;;14.60;11.30;;;;;;;11.80;100.00;101169.53;5056706;28;20171;-67
2021/08/21 02:04:46;;;;;;;15.97;10.93;;;;;;;11.75;100.00;101176.91;5055636;28;20194;-67
2021/08/21 02:07:11;;;;;;;12.00;9.83;;;;;;;11.77;100.00;101179.50;5056543;28;20660;-68
2021/08/21 02:09:36;;;;;;;19.73;9.03;;;;;;;11.74;100.00;101174.31;5055630;28;20178;-67
2021/08/21 02:12:04;;;;;;;14.57;10.60;;;;;;;11.76;100.00;101185.78;5056710;28;20175;-67
2021/08/21 02:14:29;;;;;;;12.40;9.10;;;;;;;11.79;100.00;101178.50;5055501;28;20266;-67
2021/08/21 02:16:57;;;;;;;13.27;10.00;;;;;;;11.75;100.00;101189.41;5056355;28;20175;-68
2021/08/21 02:19:23;;;;;;;14.33;9.73;;;;;;;11.70;100.00;101181.63;5056606;28;20254;-68
2021/08/21 02:21:50;;;;;;;11.97;9.60;;;;;;;11.63;100.00;101182.03;5055558;28;20270;-67
2021/08/21 02:24:17;;;;;;;12.97;9.40;;;;;;;11.67;100.00;101184.47;5056592;28;20226;-67
2021/08/21 02:26:45;;;;;;;14.53;9.57;;;;;;;11.69;100.00;101184.38;5056484;28;20200;-67
2021/08/21 02:29:12;;;;;;;13.90;9.30;;;;;;;11.68;100.00;101186.19;5056072;28;20196;-68
2021/08/21 02:31:37;;;;;;;12.33;8.97;;;;;;;11.70;100.00;101172.75;5055234;28;20531;-68
2021/08/21 02:34:03;;;;;;;11.67;9.10;;;;;;;11.69;100.00;101182.59;5056739;28;20230;-67
2021/08/21 02:36:29;;;;;;;10.97;8.27;;;;;;;11.68;100.00;101180.00;5054953;28;20179;-68
2021/08/21 02:38:54;;;;;;;12.07;8.20;;;;;;;11.67;100.00;101176.44;5055839;28;20195;-68
2021/08/21 02:41:20;;;;;;;12.87;8.20;;;;;;;11.61;100.00;101181.25;5054887;28;20180;-68
2021/08/21 02:43:45;;;;;;;19.70;9.80;;;;;;;11.62;100.00;101177.63;5054954;28;20187;-67
2021/08/21 02:46:10;;;;;;;15.37;9.53;;;;;;;11.69;100.00;101184.38;5056259;28;20598;-67
2021/08/21 02:48:36;;;;;;;12.20;7.70;;;;;;;11.74;100.00;101175.19;5056980;28;20207;-67
2021/08/21 02:51:01;;;;;;;18.50;9.43;;;;;;;11.74;100.00;101179.66;5055964;28;20293;-68
2021/08/21 02:53:26;;;;;;;33.73;13.33;;;;;;;11.71;100.00;101179.81;5055853;28;20701;-68
2021/08/21 02:55:52;;;;;;;13.37;9.57;;;;;;;11.63;100.00;101174.88;5055783;28;20222;-68
2021/08/21 02:58:17;;;;;;;14.50;9.37;;;;;;;11.70;100.00;101183.44;5056114;28;20200;-68
2021/08/21 03:00:43;;;;;;;13.63;9.13;;;;;;;11.62;100.00;101182.97;5055604;28;20180;-67
2021/08/21 03:03:08;;;;;;;23.03;10.97;;;;;;;11.58;100.00;101182.28;5037875;28;20190;-68
2021/08/21 03:05:34;;;;;;;24.63;10.93;;;;;;;11.50;100.00;101179.97;5055668;28;20172;-68
2021/08/21 03:07:59;;;;;;;23.73;13.23;;;;;;;11.51;100.00;101184.38;5054129;28;20261;-68
2021/08/21 03:10:24;;;;;;;29.33;13.13;;;;;;;11.52;100.00;101188.81;5055173;28;20175;-68
2021/08/21 03:12:50;;;;;;;46.33;15.47;;;;;;;11.53;100.00;101187.00;5055235;28;20226;-68
2021/08/21 03:15:15;;;;;;;210.63;21.27;;;;;;;11.59;100.00;101187.53;5054217;28;20183;-67
2021/08/21 03:17:40;;;;;;;215.00;18.63;;;;;;;11.58;100.00;101184.94;5054948;28;20192;-68
2021/08/21 03:20:06;;;;;;;159.17;15.63;;;;;;;11.56;100.00;101182.34;5055474;28;20586;-67
2021/08/21 03:22:31;;;;;;;141.47;17.73;;;;;;;11.58;100.00;101191.16;5055222;28;20214;-68
2021/08/21 03:24:56;;;;;;;29.17;13.40;;;;;;;11.56;100.00;101190.38;5054019;28;20175;-68
2021/08/21 03:27:22;;;;;;;77.90;19.90;;;;;;;11.54;100.00;101191.41;5053945;28;20568;-67
2021/08/21 03:29:47;;;;;;;43.93;14.70;;;;;;;11.52;100.00;101194.16;5055343;28;20175;-67
2021/08/21 03:32:16;;;;;;;37.90;13.57;;;;;;;11.52;100.00;101193.25;5055336;28;20254;-68
2021/08/21 03:34:42;;;;;;;12.10;8.30;;;;;;;11.50;100.00;101198.69;5055430;28;20186;-67
2021/08/21 03:37:08;;;;;;;17.30;9.30;;;;;;;11.49;100.00;101201.44;5054575;28;20168;-67
2021/08/21 03:39:33;;;;;;;12.00;8.20;;;;;;;11.48;100.00;101199.72;5055017;28;20172;-67
2021/08/21 03:41:58;;;;;;;10.70;7.60;;;;;;;11.49;100.00;101202.31;5055528;28;20180;-67
2021/08/21 03:44:23;;;;;;;29.57;10.97;;;;;;;11.47;100.00;101204.19;5053986;28;20187;-67
2021/08/21 03:46:49;;;;;;;11.43;7.33;;;;;;;11.47;100.00;101212.22;5054977;28;20206;-68
2021/08/21 03:49:14;;;;;;;17.67;9.63;;;;;;;11.47;100.00;101209.53;5053689;28;20194;-67
2021/08/21 03:51:39;;;;;;;46.93;10.33;;;;;;;11.43;100.00;101199.94;5054704;28;20175;-67
2021/08/21 03:54:05;;;;;;;96.13;11.93;;;;;;;11.40;100.00;101207.25;5055149;28;20270;-67
2021/08/21 03:56:30;;;;;;;14.33;9.03;;;;;;;11.34;100.00;101200.41;5055111;28;20193;-67
2021/08/21 03:58:55;;;;;;;93.90;10.03;;;;;;;11.35;100.00;101212.84;5054947;28;20660;-69
2021/08/21 04:01:21;;;;;;;12.90;7.03;;;;;;;11.37;100.00;101202.94;5054711;28;20262;-68
2021/08/21 04:03:46;;;;;;;18.37;8.17;;;;;;;11.42;100.00;101205.38;5054464;28;20282;-67
2021/08/21 04:06:11;;;;;;;39.07;8.17;;;;;;;11.43;100.00;101212.44;5054636;28;20179;-68
2021/08/21 04:08:37;;;;;;;48.27;8.30;;;;;;;11.43;100.00;101213.31;5057415;22;20223;-74
2021/08/21 04:11:02;;;;;;;27.67;7.87;;;;;;;11.49;100.00;101215.66;5036458;28;20278;-76
2021/08/21 04:13:28;;;;;;;19.57;8.67;;;;;;;11.54;100.00;101223.47;5036483;28;20180;-76
2021/08/21 04:15:54;;;;;;;20.33;6.70;;;;;;;11.58;100.00;101217.03;5036488;28;20643;-76
2021/08/21 04:18:19;;;;;;;14.47;7.47;;;;;;;11.53;100.00;101224.44;5054255;28;20256;-76
2021/08/21 04:20:44;;;;;;;9.13;7.50;;;;;;;11.53;100.00;101227.97;5053314;28;20180;-75
2021/08/21 04:23:10;;;;;;;18.57;7.40;;;;;;;11.53;100.00;101227.97;5035258;28;20179;-76
2021/08/21 04:25:35;;;;;;;15.57;7.30;;;;;;;11.61;100.00;101226.69;5054241;28;20182;-75
2021/08/21 04:28:00;;;;;;;18.80;6.90;;;;;;;11.67;100.00;101231.72;5052860;28;20203;-75
2021/08/21 04:30:26;;;;;;;23.10;6.93;;;;;;;11.66;100.00;101230.00;5036179;28;20190;-75
2021/08/21 04:32:51;;;;;;;22.40;6.70;;;;;;;11.69;100.00;101233.38;5054732;28;20187;-75
2021/08/21 04:35:16;;;;;;;134.63;11.17;;;;;;;11.63;100.00;101232.84;5036115;28;20192;-74
2021/08/21 04:37:42;;;;;;;18.47;7.20;;;;;;;11.69;100.00;101237.88;5035985;28;20529;-75
2021/08/21 04:40:08;;;;;;;9.47;7.20;;;;;;;11.77;100.00;101236.53;5036033;28;20674;-76
2021/08/21 04:42:33;;;;;;;9.77;7.37;;;;;;;11.77;100.00;101243.69;5036170;28;20176;-76
2021/08/21 04:44:59;;;;;;;12.43;7.73;;;;;;;11.79;100.00;101236.47;5035959;28;20183;-76
2021/08/21 04:47:26;;;;;;;9.13;7.27;;;;;;;11.89;100.00;101237.72;5052559;28;20679;-76
2021/08/21 04:49:51;;;;;;;10.73;7.80;;;;;;;11.94;100.00;101243.72;5036021;28;20179;-76
2021/08/21 04:52:16;;;;;;;12.00;7.23;;;;;;;12.00;100.00;101251.44;5052554;28;20241;-76
2021/08/21 04:54:42;;;;;;;10.30;7.70;;;;;;;12.04;100.00;101246.78;5035614;28;20551;-76
2021/08/21 04:57:07;;;;;;;9.07;7.40;;;;;;;12.09;100.00;101248.25;5035845;28;20179;-75
2021/08/21 04:59:32;;;;;;;18.60;7.90;;;;;;;12.08;100.00;101248.34;5052323;28;20195;-75
2021/08/21 05:01:58;;;;;;;8.13;6.80;;;;;;;12.12;100.00;101253.44;5035778;28;20399;-76
2021/08/21 05:04:23;;;;;;;9.80;7.25;;;;;;;12.15;100.00;101247.94;5036281;28;20609;-76
2021/08/21 05:06:49;;;;;;;9.30;6.87;;;;;;;12.19;100.00;101252.16;5035586;28;20427;-73
2021/08/21 05:09:14;;;;;;;9.70;7.47;;;;;;;12.19;100.00;101254.84;5053258;28;20211;-75
2021/08/21 05:11:39;;;;;;;9.27;7.00;;;;;;;12.18;100.00;101247.75;5052746;28;20175;-75
2021/08/21 05:14:04;;;;;;;11.97;7.93;;;;;;;12.19;100.00;101249.50;5052738;28;20175;-74
2021/08/21 05:16:30;;;;;;;9.83;7.07;;;;;;;12.29;100.00;101251.72;5052604;28;20705;-74
2021/08/21 05:19:02;;;;;;;11.23;7.27;;;;;;;12.24;100.00;101254.59;5053118;28;20442;-74
2021/08/21 05:21:30;;;;;;;13.23;7.90;;;;;;;12.28;100.00;101249.97;5052484;28;20156;-74
2021/08/21 05:23:56;;;;;;;10.40;8.40;;;;;;;12.35;100.00;101251.38;5035664;28;20184;-74
2021/08/21 05:26:21;;;;;;;15.10;8.43;;;;;;;12.37;100.00;101253.03;5052181;28;20203;-75
2021/08/21 05:28:47;;;;;;;12.27;8.10;;;;;;;12.42;100.00;101255.44;5052117;28;20606;-74
2021/08/21 05:31:12;;;;;;;19.67;13.07;;;;;;;12.40;100.00;101260.03;5057201;28;20190;-75
2021/08/21 05:33:37;;;;;;;14.23;9.97;;;;;;;12.53;100.00;101263.75;5064644;28;20187;-76
2021/08/21 05:36:03;;;;;;;11.13;8.27;;;;;;;12.58;100.00;101266.19;5046005;28;20171;-76
2021/08/21 05:38:28;;;;;;;13.13;8.40;;;;;;;12.63;100.00;101264.09;5067113;28;20291;-76
2021/08/21 05:40:54;;;;;;;13.57;8.57;;;;;;;12.69;100.00;101264.66;5069432;28;20175;-76
2021/08/21 05:43:19;;;;;;;14.80;8.97;;;;;;;12.69;100.00;101272.69;5052236;28;20167;-75
2021/08/21 05:45:44;;;;;;;11.80;8.50;;;;;;;12.75;100.00;101274.16;5035391;28;20180;-75
2021/08/21 05:48:10;;;;;;;14.60;8.90;;;;;;;12.74;100.00;101281.34;5056675;28;20257;-75
2021/08/21 05:50:35;;;;;;;12.57;7.70;;;;;;;12.89;100.00;101273.41;5064318;28;20315;-76
2021/08/21 05:53:00;;;;;;;12.97;8.73;;;;;;;13.00;100.00;101279.03;5063020;28;20171;-76
2021/08/21 05:55:26;;;;;;;11.63;8.53;;;;;;;13.08;100.00;101284.84;5066148;28;20187;-75
2021/08/21 05:57:51;;;;;;;8.70;7.77;;;;;;;13.06;100.00;101289.41;5062807;28;20180;-76
2021/08/21 06:00:17;;;;;;;11.03;8.23;;;;;;;13.01;100.00;101291.50;5062636;28;20183;-77
2021/08/21 06:02:43;;;;;;;10.03;7.60;;;;;;;13.12;100.00;101291.75;5056888;28;20182;-75
2021/08/21 06:05:11;;;;;;;9.63;7.20;;;;;;;13.17;100.00;101297.75;5038169;28;20520;-76
2021/08/21 06:07:36;;;;;;;11.43;7.70;;;;;;;13.33;100.00;101295.91;5054621;28;20215;-76
2021/08/21 06:10:01;;;;;;;9.63;8.23;;;;;;;13.54;100.00;101295.66;5054021;28;20191;-77
2021/08/21 06:12:27;;;;;;;9.47;7.63;;;;;;;13.80;100.00;101300.38;5053103;28;20183;-77
2021/08/21 06:14:52;;;;;;;9.63;7.37;;;;;;;13.89;100.00;101310.53;5035745;28;20183;-77
2021/08/21 06:17:17;;;;;;;9.77;6.43;;;;;;;14.06;100.00;101313.06;5055027;28;20168;-78
2021/08/21 06:19:43;;;;;;;8.20;5.97;;;;;;;14.20;100.00;101314.94;5035051;28;20230;-75
2021/08/21 06:22:08;;;;;;;9.03;6.73;;;;;;;14.37;100.00;101317.47;5034851;28;20302;-76
2021/08/21 06:24:33;;;;;;;8.00;6.30;;;;;;;14.53;100.00;101313.88;5034975;28;20180;-75
2021/08/21 06:26:59;;;;;;;9.90;6.17;;;;;;;14.68;100.00;101319.16;5051668;28;20211;-75
2021/08/21 06:29:24;;;;;;;6.70;5.63;;;;;;;14.75;100.00;101310.72;5051495;28;20255;-75
2021/08/21 06:31:50;;;;;;;9.03;5.97;;;;;;;14.75;100.00;101316.94;5051731;28;20528;-76
2021/08/21 06:34:15;;;;;;;7.57;5.90;;;;;;;14.73;100.00;101310.81;5051229;28;20171;-74
2021/08/21 06:36:40;;;;;;;8.10;5.77;;;;;;;14.71;100.00;101320.78;5052512;28;20171;-75
2021/08/21 06:39:05;;;;;;;10.40;6.40;;;;;;;14.73;100.00;101320.69;5052543;28;20203;-75
2021/08/21 06:41:31;;;;;;;10.30;5.93;;;;;;;14.65;100.00;101322.03;5051350;28;20663;-75
2021/08/21 06:43:56;;;;;;;7.17;5.63;;;;;;;14.58;100.00;101320.69;5035471;28;20183;-75
2021/08/21 06:46:21;;;;;;;7.53;5.70;;;;;;;14.57;100.00;101318.97;5052947;28;20206;-75
2021/08/21 06:48:47;;;;;;;8.07;5.57;;;;;;;14.62;100.00;101316.88;5054948;28;20598;-75
2021/08/21 06:51:12;;;;;;;10.70;5.90;;;;;;;14.64;100.00;101323.00;5055074;28;20178;-76
2021/08/21 06:53:38;;;;;;;5.93;4.77;;;;;;;14.61;100.00;101315.13;5038159;28;20179;-75
2021/08/21 06:56:04;;;;;;;9.20;5.33;;;;;;;14.57;100.00;101323.47;5055456;28;20178;-75
2021/08/21 06:58:30;;;;;;;7.97;5.50;;;;;;;14.75;100.00;101326.84;5039620;28;20600;-76
2021/08/21 07:00:55;;;;;;;6.87;5.30;;;;;;;14.87;100.00;101326.09;5058214;28;20232;-76
2021/08/21 07:03:20;;;;;;;5.90;5.03;;;;;;;14.99;100.00;101328.00;5038508;28;20241;-76
2021/08/21 07:05:46;;;;;;;6.80;4.93;;;;;;;15.05;100.00;101319.53;5055099;28;20176;-74
2021/08/21 07:08:11;;;;;;;7.43;4.50;;;;;;;15.00;100.00;101327.03;5038184;28;20227;-76
2021/08/21 07:10:36;;;;;;;6.07;4.93;;;;;;;15.15;100.00;101330.56;5038644;28;20178;-76
2021/08/21 07:13:02;;;;;;;8.37;4.67;;;;;;;15.31;100.00;101331.31;5056132;28;20587;-75
2021/08/21 07:15:27;;;;;;;5.50;4.50;;;;;;;15.36;100.00;101331.00;5054521;28;20172;-76
2021/08/21 07:17:52;;;;;;;5.77;4.43;;;;;;;15.63;100.00;101337.31;5039696;28;20187;-75
2021/08/21 07:20:18;;;;;;;8.47;4.50;;;;;;;15.86;100.00;101331.25;5055493;28;20647;-76
2021/08/21 07:22:43;;;;;;;6.73;3.90;;;;;;;16.17;98.18;101331.88;5038685;28;20309;-76
2021/08/21 07:25:09;;;;;;;5.43;3.83;;;;;;;16.39;96.60;101332.13;5038499;28;20231;-77
2021/08/21 07:27:34;;;;;;;7.93;3.90;;;;;;;16.64;93.83;101339.34;5058574;28;20195;-75
2021/08/21 07:29:59;;;;;;;4.40;3.57;;;;;;;16.92;89.67;101335.59;5045010;28;20644;-75
2021/08/21 07:32:25;;;;;;;4.93;3.40;;;;;;;17.01;90.53;101344.84;5061234;28;20182;-76
2021/08/21 07:34:50;;;;;;;3.73;3.20;;;;;;;17.08;87.56;101343.44;5065565;28;20249;-76
2021/08/21 07:37:15;;;;;;;5.40;3.70;;;;;;;17.08;88.78;101336.19;5068197;28;20172;-76
2021/08/21 07:39:41;;;;;;;7.53;3.70;;;;;;;16.79;87.91;101343.69;5056890;28;20191;-75
2021/08/21 07:42:06;;;;;;;4.50;3.13;;;;;;;16.91;88.68;101350.03;5055911;28;20175;-77
2021/08/21 07:44:31;;;;;;;7.07;3.10;;;;;;;17.09;88.64;101355.94;5038702;28;20234;-75
2021/08/21 07:46:57;;;;;;;6.00;3.20;;;;;;;17.15;85.63;101348.31;5055188;28;20198;-75
2021/08/21 07:49:22;;;;;;;4.77;2.90;;;;;;;17.40;85.89;101347.34;5038451;28;20191;-76
2021/08/21 07:51:47;;;;;;;4.17;2.87;;;;;;;17.66;84.52;101344.56;5038725;28;20575;-78
2021/08/21 07:54:13;;;;;;;4.97;2.53;;;;;;;17.91;84.06;101347.22;5039580;28;20175;-76
2021/08/21 07:56:38;;;;;;;4.67;2.43;;;;;;;18.35;83.76;101360.00;5055496;28;20251;-76
2021/08/21 07:59:03;;;;;;;3.23;2.47;;;;;;;18.51;81.37;101354.28;5053974;28;20553;-76
2021/08/21 08:01:29;;;;;;;3.40;2.07;;;;;;;18.20;78.81;101353.06;5055220;28;20175;-77
2021/08/21 08:03:54;;;;;;;3.23;2.10;;;;;;;17.89;80.67;101354.56;5054323;28;20171;-76
2021/08/21 08:06:19;;;;;;;5.70;2.20;;;;;;;17.66;82.22;101349.97;5037259;28;20658;-77
2021/08/21 08:08:45;;;;;;;2.67;1.77;;;;;;;17.79;81.74;101343.56;5056298;28;20215;-76
2021/08/21 08:11:10;;;;;;;2.07;1.80;;;;;;;17.96;80.80;101346.84;5054746;28;20179;-76
2021/08/21 08:13:35;;;;;;;4.93;2.17;;;;;;;18.05;79.41;101341.59;5038378;28;20571;-77
2021/08/21 08:16:00;;;;;;;1.67;1.47;;;;;;;18.25;78.21;101347.34;5055755;28;20183;-77
2021/08/21 08:18:26;;;;;;;3.73;2.00;;;;;;;18.32;78.72;101348.59;5038298;28;20196;-74
2021/08/21 08:20:51;;;;;;;2.93;1.70;;;;;;;18.89;74.44;101347.72;5054137;28;20633;-74
2021/08/21 08:23:17;;;;;;;3.27;1.93;;;;;;;18.57;73.43;101336.72;5053725;28;20182;-75
2021/08/21 08:25:42;;;;;;;4.70;1.50;;;;;;;18.81;74.16;101342.06;5037635;28;20222;-75
2021/08/21 08:28:07;;;;;;;3.03;1.57;;;;;;;18.98;72.19;101344.31;5038359;28;20208;-76
2021/08/21 08:30:33;;;;;;;3.53;1.50;;;;;;;18.83;72.64;101345.50;5057261;28;20233;-75
2021/08/21 08:32:58;;;;;;;3.97;1.50;;;;;;;19.03;73.03;101342.94;5039391;28;20603;-76
2021/08/21 08:35:23;;;;;;;2.27;1.50;;;;;;;19.18;73.17;101345.38;5056052;28;20648;-75
2021/08/21 08:37:49;;;;;;;2.83;1.40;;;;;;;19.55;72.40;101335.16;5054723;28;20202;-75
2021/08/21 08:40:14;;;;;;;5.90;1.87;;;;;;;19.23;70.68;101333.19;5059376;28;20226;-76
2021/08/21 08:42:42;;;;;;;2.30;1.67;;;;;;;18.40;73.27;101338.91;5059134;28;20187;-76
2021/08/21 08:45:13;;;;;;;5.77;2.10;;;;;;;18.14;74.79;101337.34;5039510;28;20216;-75
2021/08/21 08:47:39;;;;;;;4.60;1.70;;;;;;;18.31;74.49;101350.44;5041199;28;20253;-76
2021/08/21 08:50:07;;;;;;;4.87;1.67;;;;;;;18.41;73.67;101353.28;5040210;28;20183;-76
2021/08/21 08:52:34;;;;;;;3.37;1.60;;;;;;;18.08;74.96;101348.63;5038270;28;20175;-77
2021/08/21 08:55:00;;;;;;;2.63;1.30;;;;;;;18.17;74.94;101356.00;5054386;28;20652;-77
2021/08/21 08:57:39;;;;;;;3.43;1.43;;;;;;;18.42;72.87;101363.09;5053707;28;20167;-74
2021/08/21 09:00:10;;;;;;;3.80;2.00;;;;;;;18.28;73.36;101363.31;5059635;28;20532;-76
2021/08/21 09:02:42;;;;;;;3.07;1.77;;;;;;;18.35;73.04;101365.41;5053563;28;20163;-76
2021/08/21 09:05:12;;;;;;;2.70;1.60;;;;;;;18.65;73.05;101366.75;5053843;28;20167;-76
2021/08/21 09:07:55;;;;;;;3.00;1.70;;;;;;;19.36;71.13;101376.38;5060094;28;20196;-74
2021/08/21 09:10:24;;;;;;;2.27;1.00;;;;;;;19.77;67.50;101361.31;5044359;28;20156;-76
2021/08/21 09:12:54;;;;;;;6.97;1.30;;;;;;;19.89;66.72;101368.41;5041234;28;20648;-75
2021/08/21 09:15:20;;;;;;;2.90;1.33;;;;;;;19.74;66.82;101377.84;5052411;28;20168;-74
2021/08/21 09:18:07;;;;;;;2.70;1.83;;;;;;;19.47;67.77;101379.06;5036646;28;20641;-75
2021/08/21 09:21:00;;;;;;;2.37;1.50;;;;;;;19.04;68.74;101378.97;5053861;28;20176;-75
2021/08/21 09:23:35;;;;;;;1.93;1.20;;;;;;;18.89;67.29;101375.63;5052941;28;20151;-75
2021/08/21 09:26:09;;;;;;;4.03;1.87;;;;;;;18.46;69.46;101377.22;5036510;28;20174;-76
2021/08/21 09:28:36;;;;;;;2.13;1.60;;;;;;;18.58;68.36;101381.69;5054474;28;20695;-76
2021/08/21 09:31:03;;;;;;;2.80;1.60;;;;;;;18.81;67.10;101382.63;5053670;28;20218;-75
2021/08/21 09:33:29;;;;;;;3.00;2.00;;;;;;;18.73;67.63;101381.41;5037022;28;20180;-75
2021/08/21 09:35:54;;;;;;;4.13;2.20;;;;;;;18.95;68.33;101385.09;5053642;28;20533;-76
2021/08/21 09:38:39;;;;;;;4.27;1.80;;;;;;;19.27;67.71;101388.78;5035858;28;20344;-76
2021/08/21 09:41:07;;;;;;;1.70;1.27;;;;;;;19.70;67.32;101374.53;5055078;28;20164;-76
2021/08/21 09:43:35;;;;;;;4.00;1.90;;;;;;;19.44;68.68;101375.75;5039621;28;20230;-76
2021/08/21 09:46:10;;;;;;;2.20;1.50;;;;;;;19.72;66.87;101379.81;5036960;28;20180;-76
2021/08/21 09:49:03;;;;;;;2.83;1.00;;;;;;;20.12;64.51;101378.19;5053184;28;20701;-74
2021/08/21 09:51:39;;;;;;;2.10;1.17;;;;;;;20.37;63.36;101376.09;5052544;28;20160;-76
2021/08/21 09:54:07;;;;;;;3.17;1.00;;;;;;;20.88;61.00;101374.34;5052270;28;20179;-77
2021/08/21 09:56:34;;;;;;;3.50;1.60;;;;;;;21.46;60.30;101385.47;5036424;28;20202;-76
2021/08/21 09:59:00;;;;;;;3.70;1.20;;;;;;;21.54;59.55;101374.75;5052557;28;20187;-77
2021/08/21 10:01:27;;;;;;;3.17;1.13;;;;;;;22.26;56.89;101367.31;5036575;28;20172;-76
2021/08/21 10:03:52;;;;;;;2.50;1.10;;;;;;;20.98;59.79;101373.53;5038213;28;20191;-77
2021/08/21 10:06:18;;;;;;;2.03;1.00;;;;;;;21.15;56.75;101372.88;5037413;28;20184;-76
2021/08/21 10:08:44;;;;;;;2.10;1.00;;;;;;;20.68;57.94;101372.50;5074823;22;20227;-74
2021/08/21 10:11:09;;;;;;;2.90;1.13;;;;;;;19.45;62.96;101369.34;5035205;28;20195;-75
2021/08/21 10:13:38;;;;;;;2.93;1.10;;;;;;;19.58;63.36;101370.94;5051911;28;20551;-75
2021/08/21 10:16:08;;;;;;;2.53;0.90;;;;;;;18.62;65.63;101369.72;5034834;28;20187;-74
2021/08/21 10:18:34;;;;;;;3.80;1.10;;;;;;;18.06;68.24;101364.06;5051358;28;20278;-74
2021/08/21 10:20:59;;;;;;;2.17;1.17;;;;;;;18.23;67.86;101365.50;5053323;28;20225;-74
2021/08/21 10:23:27;;;;;;;2.37;0.80;;;;;;;18.27;68.36;101375.09;5055682;28;20183;-73
2021/08/21 10:25:57;;;;;;;1.57;0.70;;;;;;;18.40;67.28;101376.72;5055167;28;20222;-74
2021/08/21 10:28:23;;;;;;;3.53;1.10;;;;;;;18.64;66.62;101378.56;5038518;28;20293;-73
2021/08/21 10:30:49;;;;;;;1.10;0.90;;;;;;;19.17;65.61;101377.00;5056497;28;20176;-73
2021/08/21 10:33:15;;;;;;;3.07;1.00;;;;;;;19.56;65.49;101374.78;5055308;28;20237;-74
2021/08/21 10:35:46;;;;;;;1.43;0.80;;;;;;;19.66;62.38;101376.59;5038399;28;20636;-73
2021/08/21 10:38:30;;;;;;;3.50;0.90;;;;;;;20.51;60.71;101371.25;5054816;28;20229;-74
2021/08/21 10:40:59;;;;;;;1.70;1.00;;;;;;;20.87;58.59;101372.63;5054647;28;20669;-74
2021/08/21 10:44:01;;;;;;;2.73;1.10;;;;;;;20.88;58.47;101371.63;5056163;28;20179;-74
2021/08/21 10:46:29;;;;;;;2.50;1.07;;;;;;;20.21;59.87;101361.16;5055225;28;20643;-74
2021/08/21 10:48:55;;;;;;;1.53;1.10;;;;;;;20.57;59.12;101365.31;5056028;28;20198;-75
2021/08/21 10:51:40;;;;;;;1.87;1.23;;;;;;;21.37;56.88;101359.16;5054900;28;20207;-74
2021/08/21 10:54:24;;;;;;;1.30;0.90;;;;;;;22.04;55.20;101358.44;5054885;28;20224;-74
2021/08/21 10:56:50;;;;;;;1.23;0.80;;;;;;;21.62;57.24;101362.38;5054664;28;20221;-74
2021/08/21 10:59:44;;;;;;;1.53;0.80;;;;;;;20.77;56.16;101363.53;5054612;28;20199;-74
2021/08/21 11:02:36;;;;;;;2.53;0.97;;;;;;;22.26;53.81;101367.31;5054782;28;20183;-74
2021/08/21 11:05:01;;;;;;;1.67;0.90;;;;;;;24.17;50.05;101361.25;5054770;28;20282;-73
2021/08/21 11:07:29;;;;;;;1.43;0.70;;;;;;;25.45;47.06;101366.03;5037757;28;20303;-74
2021/08/21 11:10:14;;;;;;;3.07;0.77;;;;;;;24.48;48.45;101358.09;5055465;28;20203;-74
2021/08/21 11:12:40;;;;;;;1.80;0.90;;;;;;;25.53;46.90;101368.81;5056100;28;20186;-76